Time;durP1;ratioP1;P1;durP2;ratioP2;P2;SDS_P1;SDS_P2;PMS_P1;PMS_P2;Temp;Humidity;BMP_temperature;BMP_pressure;BME280_temperature;BME280_humidity;BME280_pressure;Samples;Min_cycle;Max_cycle;Signal;HPM_P1;HPM_P2
2024/01/12 00:00:30;;;;;;;40.80;16.70;;;-3.60;99.90;;;;;;5112459;28;20030;-74
2024/01/12 00:02:55;;;;;;;48.43;17.97;;;-3.60;99.90;;;;;;5094592;28;20020;-74
2024/01/12 00:05:21;;;;;;;50.87;17.83;;;-3.70;99.90;;;;;;5112078;28;20162;-73
2024/01/12 00:07:47;;;;;;;43.83;17.40;;;-3.60;99.90;;;;;;5112920;28;20057;-74
2024/01/12 00:10:13;;;;;;;46.17;17.27;;;-3.60;99.90;;;;;;5093439;28;20028;-74
2024/01/12 00:12:39;;;;;;;40.00;17.23;;;-3.50;99.90;;;;;;5094522;28;20118;-74
2024/01/12 00:15:05;;;;;;;46.87;17.10;;;-3.50;99.90;;;;;;5097320;28;20055;-74
2024/01/12 00:17:31;;;;;;;43.93;16.40;;;-3.50;99.90;;;;;;5116214;28;20036;-74
2024/01/12 00:19:57;;;;;;;35.97;16.17;;;-3.50;99.90;;;;;;5097833;28;20065;-74
2024/01/12 00:22:22;;;;;;;43.60;16.17;;;-3.50;99.90;;;;;;5097557;28;20034;-74
2024/01/12 00:24:49;;;;;;;44.80;17.00;;;-3.60;99.90;;;;;;5098107;28;20524;-74
2024/01/12 00:27:14;;;;;;;38.23;15.30;;;-3.60;99.90;;;;;;5097436;28;20019;-74
2024/01/12 00:29:40;;;;;;;40.93;17.30;;;-3.60;99.90;;;;;;5097821;28;20420;-74
2024/01/12 00:32:06;;;;;;;40.17;16.00;;;-3.60;99.90;;;;;;5097443;28;20072;-74
2024/01/12 00:34:32;;;;;;;37.43;15.33;;;-3.50;99.90;;;;;;5115999;28;20072;-73
2024/01/12 00:36:57;;;;;;;43.50;16.30;;;-3.60;99.90;;;;;;5116030;28;20495;-74
2024/01/12 00:39:23;;;;;;;46.53;17.90;;;-3.60;99.90;;;;;;5115788;28;20406;-73
2024/01/12 00:41:50;;;;;;;43.80;17.07;;;-3.70;99.90;;;;;;5097182;28;20093;-74
2024/01/12 00:44:18;;;;;;;45.30;17.27;;;-3.70;99.90;;;;;;5115411;28;20077;-74
2024/01/12 00:46:44;;;;;;;43.20;15.73;;;-3.70;99.90;;;;;;5097581;28;20472;-74
2024/01/12 00:49:10;;;;;;;46.50;16.83;;;-3.60;99.90;;;;;;5096999;28;20100;-74
2024/01/12 00:51:35;;;;;;;39.07;15.20;;;-3.60;99.90;;;;;;5097400;28;20072;-74
2024/01/12 00:54:02;;;;;;;37.50;14.80;;;-3.70;99.90;;;;;;5097486;28;20028;-73
2024/01/12 00:56:27;;;;;;;35.80;14.83;;;-3.60;99.90;;;;;;5096937;28;20023;-74
2024/01/12 00:58:53;;;;;;;37.83;15.27;;;-3.50;99.90;;;;;;5115572;28;20402;-73
2024/01/12 01:01:19;;;;;;;38.57;16.40;;;-3.50;99.90;;;;;;5114970;28;20017;-73
2024/01/12 01:03:44;;;;;;;47.07;17.77;;;-3.60;99.90;;;;;;5097138;28;20024;-73
2024/01/12 01:06:10;;;;;;;39.63;15.03;;;-3.80;99.90;;;;;;5096721;28;20081;-73
2024/01/12 01:08:35;;;;;;;39.63;15.57;;;-3.80;99.90;;;;;;5115383;28;20060;-74
2024/01/12 01:11:01;;;;;;;41.00;16.73;;;-3.90;99.90;;;;;;5097076;28;20424;-74
2024/01/12 01:13:27;;;;;;;41.03;16.50;;;-3.90;99.90;;;;;;5114837;28;20035;-74
2024/01/12 01:15:52;;;;;;;44.93;17.13;;;-3.80;99.90;;;;;;5115256;28;20405;-74
2024/01/12 01:18:18;;;;;;;44.97;17.37;;;-3.80;99.90;;;;;;5096545;28;20031;-73
2024/01/12 01:20:43;;;;;;;40.10;16.57;;;-3.80;99.90;;;;;;5096965;28;20023;-73
2024/01/12 01:23:09;;;;;;;39.77;16.17;;;-3.80;99.90;;;;;;5096368;28;20157;-74
2024/01/12 01:25:36;;;;;;;43.97;18.27;;;-3.80;99.90;;;;;;5096217;28;20023;-73
2024/01/12 01:28:02;;;;;;;41.07;15.73;;;-3.80;99.90;;;;;;5096830;28;20338;-74
2024/01/12 01:30:28;;;;;;;44.43;17.33;;;-3.90;99.90;;;;;;5096249;28;20020;-74
2024/01/12 01:32:54;;;;;;;40.53;16.90;;;-3.90;99.90;;;;;;5096520;28;20077;-73
2024/01/12 01:35:19;;;;;;;37.93;15.17;;;-3.90;99.90;;;;;;5114478;28;20057;-73
2024/01/12 01:37:45;;;;;;;44.80;16.57;;;-3.90;99.90;;;;;;5114836;28;20031;-74
2024/01/12 01:40:11;;;;;;;41.77;16.77;;;-4.00;99.90;;;;;;5114156;28;20049;-74
2024/01/12 01:42:36;;;;;;;42.33;17.67;;;-4.00;99.90;;;;;;5114803;28;20361;-73
2024/01/12 01:45:02;;;;;;;40.70;16.90;;;-4.00;99.90;;;;;;5096373;28;20032;-74
2024/01/12 01:47:28;;;;;;;37.57;16.13;;;-4.10;99.90;;;;;;5095930;28;20023;-74
2024/01/12 01:49:55;;;;;;;36.80;15.67;;;-4.10;99.90;;;;;;5096396;28;20019;-74
2024/01/12 01:52:22;;;;;;;41.63;16.30;;;-4.00;99.90;;;;;;5095773;28;20038;-74
2024/01/12 01:54:48;;;;;;;39.80;16.07;;;-3.90;99.90;;;;;;5096244;28;20066;-74
2024/01/12 01:57:14;;;;;;;41.57;16.17;;;-3.90;99.90;;;;;;5113760;28;20391;-74
2024/01/12 01:59:41;;;;;;;42.40;17.30;;;-3.90;99.90;;;;;;5096169;28;20093;-74
2024/01/12 02:02:08;;;;;;;38.27;16.27;;;-3.90;99.90;;;;;;5096114;28;20024;-74
2024/01/12 02:04:34;;;;;;;41.00;15.87;;;-3.90;99.90;;;;;;5095967;28;20032;-74
2024/01/12 02:07:01;;;;;;;45.47;17.50;;;-3.90;99.90;;;;;;5095950;28;20464;-74
2024/01/12 02:09:28;;;;;;;41.50;15.40;;;-4.00;99.90;;;;;;5113834;28;20023;-74
2024/01/12 02:11:54;;;;;;;39.87;16.97;;;-4.00;99.90;;;;;;5095555;28;20065;-74
2024/01/12 02:14:20;;;;;;;38.87;16.93;;;-4.00;99.90;;;;;;5095399;28;20055;-74
2024/01/12 02:16:46;;;;;;;44.57;16.40;;;-4.00;99.90;;;;;;5095898;28;20020;-74
2024/01/12 02:19:12;;;;;;;46.03;17.57;;;-4.00;99.90;;;;;;5095113;28;20136;-73
2024/01/12 02:21:37;;;;;;;44.43;15.93;;;-3.90;99.90;;;;;;5114127;28;20042;-74
2024/01/12 02:24:03;;;;;;;39.60;15.57;;;-4.00;99.90;;;;;;5095608;28;20396;-73
2024/01/12 02:26:29;;;;;;;35.90;14.97;;;-4.00;99.90;;;;;;5095086;28;20027;-75
2024/01/12 02:28:54;;;;;;;40.57;16.10;;;-4.00;99.90;;;;;;5095608;28;20128;-73
2024/01/12 02:31:20;;;;;;;43.63;16.70;;;-3.90;99.90;;;;;;5095022;28;20543;-74
2024/01/12 02:33:49;;;;;;;37.80;15.07;;;-3.90;99.90;;;;;;5095827;28;20034;-74
2024/01/12 02:36:15;;;;;;;42.03;16.87;;;-4.00;99.90;;;;;;5094626;28;20016;-74
2024/01/12 02:38:40;;;;;;;34.17;15.10;;;-4.00;99.90;;;;;;5113071;28;20030;-74
2024/01/12 02:41:06;;;;;;;38.13;15.10;;;-4.00;99.90;;;;;;5113548;28;20040;-74
2024/01/12 02:43:31;;;;;;;43.37;15.77;;;-4.00;99.90;;;;;;5094822;28;20031;-73
2024/01/12 02:45:57;;;;;;;43.40;17.27;;;-4.00;99.90;;;;;;5113782;28;20085;-74
2024/01/12 02:48:22;;;;;;;39.90;15.60;;;-4.10;99.90;;;;;;5094826;28;20413;-74
2024/01/12 02:50:48;;;;;;;39.77;16.67;;;-4.10;99.90;;;;;;5095023;28;20019;-74
2024/01/12 02:53:14;;;;;;;44.13;17.40;;;-4.10;99.90;;;;;;5112550;28;20026;-74
2024/01/12 02:55:39;;;;;;;39.70;17.20;;;-4.40;99.90;;;;;;5095226;28;20023;-74
2024/01/12 02:58:05;;;;;;;41.07;16.03;;;-4.40;99.90;;;;;;5095299;28;20448;-74
2024/01/12 03:00:30;;;;;;;38.63;16.17;;;-4.40;99.90;;;;;;5112739;28;20172;-74
2024/01/12 03:02:56;;;;;;;37.93;15.47;;;-4.50;99.90;;;;;;5113338;28;20015;-74
2024/01/12 03:05:22;;;;;;;35.50;15.40;;;-4.60;99.90;;;;;;5094434;28;20035;-74
2024/01/12 03:07:47;;;;;;;36.53;14.60;;;-4.50;99.90;;;;;;5095195;28;20065;-74
2024/01/12 03:10:16;;;;;;;36.37;15.97;;;-4.40;99.90;;;;;;5094528;28;20123;-75
2024/01/12 03:12:42;;;;;;;38.93;15.67;;;-4.40;99.90;;;;;;5113150;28;20449;-73
2024/01/12 03:15:07;;;;;;;43.67;17.00;;;-4.40;99.90;;;;;;5094986;28;20023;-74
2024/01/12 03:17:33;;;;;;;40.83;16.47;;;-4.40;99.90;;;;;;5112688;28;20086;-74
2024/01/12 03:19:59;;;;;;;42.23;17.43;;;-4.40;99.90;;;;;;5094926;28;20023;-74
2024/01/12 03:22:24;;;;;;;39.83;15.70;;;-4.40;99.90;;;;;;5094304;28;20024;-74
2024/01/12 03:24:50;;;;;;;46.63;16.47;;;-4.40;99.90;;;;;;5113021;28;20414;-74
2024/01/12 03:27:15;;;;;;;46.80;17.53;;;-4.40;99.90;;;;;;5094376;28;20020;-74
2024/01/12 03:29:41;;;;;;;40.37;15.97;;;-4.50;99.90;;;;;;5094908;28;20432;-74
2024/01/12 03:32:06;;;;;;;36.20;16.27;;;-4.60;99.90;;;;;;5094913;28;20020;-74
2024/01/12 03:34:32;;;;;;;47.27;16.93;;;-4.60;99.90;;;;;;5094237;28;20043;-74
2024/01/12 03:36:58;;;;;;;36.80;16.00;;;-4.60;99.90;;;;;;5112639;28;20024;-74
2024/01/12 03:39:24;;;;;;;40.33;17.10;;;-4.50;99.90;;;;;;5111878;28;20024;-74
2024/01/12 03:41:49;;;;;;;46.03;18.20;;;-4.50;99.90;;;;;;5112916;28;20036;-74
2024/01/12 03:44:15;;;;;;;43.37;16.00;;;-4.40;99.90;;;;;;5112389;28;20038;-75
2024/01/12 03:46:40;;;;;;;43.30;16.43;;;-4.40;99.90;;;;;;5094671;28;20023;-74
2024/01/12 03:49:06;;;;;;;47.57;17.50;;;-4.30;99.90;;;;;;5096519;28;20024;-74
2024/01/12 03:51:32;;;;;;;43.93;17.67;;;-4.40;99.90;;;;;;5098196;28;20053;-74
2024/01/12 03:53:58;;;;;;;45.30;17.07;;;-4.40;99.90;;;;;;5098610;28;20112;-74
2024/01/12 03:56:23;;;;;;;39.17;16.53;;;-4.40;99.90;;;;;;5098222;28;20345;-74
2024/01/12 03:58:49;;;;;;;46.40;18.70;;;-4.40;99.90;;;;;;5098592;28;20119;-74
2024/01/12 04:01:14;;;;;;;41.50;16.37;;;-4.40;99.90;;;;;;5116301;28;20019;-80
2024/01/12 04:03:41;;;;;;;43.63;16.83;;;-4.50;99.90;;;;;;5098339;28;20035;-74
2024/01/12 04:06:08;;;;;;;40.53;16.80;;;-4.40;99.90;;;;;;5098135;28;20456;-74
2024/01/12 04:08:34;;;;;;;42.67;16.73;;;-4.40;99.90;;;;;;5097723;28;20024;-74
2024/01/12 04:10:59;;;;;;;41.33;16.37;;;-4.40;99.90;;;;;;5097944;28;20097;-74
2024/01/12 04:13:25;;;;;;;45.27;18.37;;;-4.40;99.90;;;;;;5115773;28;20026;-74
2024/01/12 04:15:51;;;;;;;45.40;17.67;;;-4.50;99.90;;;;;;5116291;28;20026;-74
2024/01/12 04:18:16;;;;;;;42.90;16.63;;;-4.50;99.90;;;;;;5115796;28;20069;-77
2024/01/12 04:20:42;;;;;;;47.17;16.43;;;-4.50;99.90;;;;;;5115993;28;20019;-74
2024/01/12 04:23:08;;;;;;;42.47;17.93;;;-4.40;99.90;;;;;;5098011;28;20017;-74
2024/01/12 04:25:33;;;;;;;42.93;17.60;;;-4.40;99.90;;;;;;5097304;28;20138;-74
2024/01/12 04:27:59;;;;;;;47.23;17.07;;;-4.50;99.90;;;;;;5097882;28;20027;-74
2024/01/12 04:30:24;;;;;;;52.13;18.23;;;-4.50;99.90;;;;;;5115739;28;20382;-74
2024/01/12 04:32:50;;;;;;;39.97;17.20;;;-4.40;99.90;;;;;;5097807;28;20030;-74
2024/01/12 04:35:16;;;;;;;39.70;16.63;;;-4.50;99.90;;;;;;5098020;28;20020;-74
2024/01/12 04:37:41;;;;;;;41.77;17.40;;;-4.40;99.90;;;;;;5097353;28;20056;-74
2024/01/12 04:40:07;;;;;;;40.63;18.73;;;-4.40;99.90;;;;;;5115638;28;20467;-74
2024/01/12 04:42:33;;;;;;;47.57;18.70;;;-4.50;99.90;;;;;;5097179;28;20076;-74
2024/01/12 04:44:59;;;;;;;47.97;18.97;;;-4.40;99.90;;;;;;5097421;28;20031;-74
2024/01/12 04:47:25;;;;;;;50.13;18.80;;;-4.50;99.90;;;;;;5097100;28;20022;-74
2024/01/12 04:49:50;;;;;;;40.60;16.23;;;-4.50;99.90;;;;;;5097423;28;20122;-73
2024/01/12 04:52:16;;;;;;;47.20;17.43;;;-4.50;99.90;;;;;;5097418;28;20498;-74
2024/01/12 04:54:41;;;;;;;41.57;17.13;;;-4.50;99.90;;;;;;5096906;28;20055;-74
2024/01/12 04:57:07;;;;;;;38.83;16.97;;;-4.50;99.90;;;;;;5097346;28;20020;-74
2024/01/12 04:59:33;;;;;;;39.00;16.07;;;-4.50;99.90;;;;;;5114479;28;20099;-74
2024/01/12 05:01:59;;;;;;;43.07;16.27;;;-4.50;99.90;;;;;;5096818;28;20064;-74
2024/01/12 05:04:25;;;;;;;39.87;16.03;;;-4.60;99.90;;;;;;5096660;28;20383;-73
2024/01/12 05:06:50;;;;;;;45.30;17.33;;;-4.50;99.90;;;;;;5097329;28;20028;-74
2024/01/12 05:09:16;;;;;;;40.93;17.50;;;-4.50;99.90;;;;;;5097125;28;20026;-73
2024/01/12 05:11:41;;;;;;;42.63;17.37;;;-4.50;99.90;;;;;;5096130;28;20019;-74
2024/01/12 05:14:07;;;;;;;47.20;17.60;;;-4.50;99.90;;;;;;5114893;28;20120;-74
2024/01/12 05:16:32;;;;;;;42.17;16.33;;;-4.50;99.90;;;;;;5114639;28;20027;-74
2024/01/12 05:18:58;;;;;;;40.50;16.37;;;-4.50;99.90;;;;;;5096929;28;20104;-74
2024/01/12 05:21:23;;;;;;;40.67;16.13;;;-4.50;99.90;;;;;;5096426;28;20031;-74
2024/01/12 05:23:49;;;;;;;46.87;17.60;;;-4.50;99.90;;;;;;5096781;28;20414;-73
2024/01/12 05:26:15;;;;;;;38.57;17.17;;;-4.50;99.90;;;;;;5096808;28;20023;-74
2024/01/12 05:28:41;;;;;;;43.07;17.30;;;-4.50;99.90;;;;;;5096238;28;20027;-74
2024/01/12 05:31:09;;;;;;;37.90;17.00;;;-4.60;99.90;;;;;;5114965;28;20023;-74
2024/01/12 05:33:34;;;;;;;39.60;15.90;;;-4.60;99.90;;;;;;5096239;28;20126;-74
2024/01/12 05:36:00;;;;;;;39.47;16.93;;;-4.50;99.90;;;;;;5114902;28;20066;-74
2024/01/12 05:38:26;;;;;;;42.70;16.17;;;-4.60;99.90;;;;;;5096166;28;20016;-74
2024/01/12 05:40:51;;;;;;;42.40;18.50;;;-4.60;99.90;;;;;;5096190;28;20090;-74
2024/01/12 05:43:17;;;;;;;43.80;16.73;;;-4.60;99.90;;;;;;5096406;28;20023;-73
2024/01/12 05:45:43;;;;;;;41.93;16.77;;;-4.60;99.90;;;;;;5114188;28;20051;-74
2024/01/12 05:48:09;;;;;;;43.60;16.33;;;-4.60;99.90;;;;;;5115055;28;20054;-74
2024/01/12 05:50:35;;;;;;;41.67;17.20;;;-4.50;99.90;;;;;;5095945;28;20449;-74
2024/01/12 05:53:00;;;;;;;43.77;17.57;;;-4.50;99.90;;;;;;5096380;28;20023;-73
2024/01/12 05:55:26;;;;;;;45.13;16.63;;;-4.50;99.90;;;;;;5095757;28;20455;-74
2024/01/12 05:57:51;;;;;;;45.27;17.57;;;-4.50;99.90;;;;;;5096419;28;20023;-74
2024/01/12 06:00:17;;;;;;;40.43;16.10;;;-4.50;99.90;;;;;;5095916;28;20015;-73
2024/01/12 06:02:43;;;;;;;41.47;18.10;;;-4.60;99.90;;;;;;5113916;28;20034;-74
2024/01/12 06:05:09;;;;;;;42.93;16.67;;;-4.60;99.90;;;;;;5114267;28;20027;-74
2024/01/12 06:07:34;;;;;;;42.93;16.90;;;-4.60;99.90;;;;;;5095571;28;20524;-74
2024/01/12 06:10:00;;;;;;;40.33;17.17;;;-4.60;99.90;;;;;;5114081;28;20126;-74
2024/01/12 06:12:25;;;;;;;43.50;16.87;;;-4.60;99.90;;;;;;5113522;28;20050;-74
2024/01/12 06:14:53;;;;;;;39.47;16.63;;;-4.60;99.90;;;;;;5095890;28;20104;-74
2024/01/12 06:17:18;;;;;;;43.60;17.20;;;-4.60;99.90;;;;;;5114091;28;20494;-74
2024/01/12 06:19:44;;;;;;;47.00;18.03;;;-4.60;99.90;;;;;;5095254;28;20024;-74
2024/01/12 06:22:10;;;;;;;45.30;17.40;;;-4.60;99.90;;;;;;5095680;28;20111;-74
2024/01/12 06:24:35;;;;;;;39.97;15.90;;;-4.60;99.90;;;;;;5095020;28;20023;-74
2024/01/12 06:27:01;;;;;;;39.90;15.77;;;-4.60;99.90;;;;;;5113918;28;20053;-74
2024/01/12 06:29:26;;;;;;;38.17;16.53;;;-4.60;99.90;;;;;;5094947;28;20024;-74
2024/01/12 06:31:52;;;;;;;45.73;17.20;;;-4.60;99.90;;;;;;5095605;28;20016;-74
2024/01/12 06:34:18;;;;;;;41.63;15.83;;;-4.60;99.90;;;;;;5095541;28;20027;-74
2024/01/12 06:36:43;;;;;;;47.87;18.07;;;-4.50;99.90;;;;;;5113341;28;20051;-74
2024/01/12 06:39:09;;;;;;;39.43;16.67;;;-4.50;99.90;;;;;;5095508;28;20114;-74
2024/01/12 06:41:41;;;;;;;44.90;16.73;;;-4.50;99.90;;;;;;5112345;28;20405;-74
2024/01/12 06:44:07;;;;;;;41.23;17.23;;;-4.60;99.90;;;;;;5113362;28;20487;-74
2024/01/12 06:46:34;;;;;;;46.80;17.60;;;-4.60;99.90;;;;;;5094598;28;20022;-74
2024/01/12 06:49:00;;;;;;;49.67;18.17;;;-4.60;99.90;;;;;;5094938;28;20372;-74
2024/01/12 06:51:25;;;;;;;45.13;18.60;;;-4.60;99.90;;;;;;5094883;28;20020;-74
2024/01/12 06:53:51;;;;;;;52.87;18.93;;;-4.60;99.90;;;;;;5113237;28;20016;-74
2024/01/12 06:56:20;;;;;;;42.90;16.83;;;-4.60;99.90;;;;;;5113318;28;20103;-74
2024/01/12 06:58:46;;;;;;;46.00;17.93;;;-4.50;99.90;;;;;;5112628;28;20028;-74
2024/01/12 07:01:12;;;;;;;44.43;17.57;;;-4.50;99.90;;;;;;5095061;28;20023;-74
2024/01/12 07:03:37;;;;;;;44.37;18.47;;;-4.50;99.90;;;;;;5094741;28;20414;-74
2024/01/12 07:06:04;;;;;;;39.67;18.13;;;-4.50;99.90;;;;;;5094711;28;20026;-74
2024/01/12 07:08:29;;;;;;;43.37;17.13;;;-4.50;99.90;;;;;;5094176;28;20453;-74
2024/01/12 07:10:55;;;;;;;51.33;18.33;;;-4.50;99.90;;;;;;5112736;28;20020;-74
2024/01/12 07:13:20;;;;;;;42.97;17.33;;;-4.50;99.90;;;;;;5112677;28;20027;-74
2024/01/12 07:15:46;;;;;;;47.70;18.27;;;-4.40;99.90;;;;;;5094190;28;20020;-74
2024/01/12 07:18:11;;;;;;;53.77;18.00;;;-4.50;99.90;;;;;;5112829;28;20451;-74
2024/01/12 07:20:37;;;;;;;50.47;17.27;;;-4.50;99.90;;;;;;5093811;28;20023;-74
2024/01/12 07:23:03;;;;;;;47.73;19.57;;;-4.60;99.90;;;;;;5113438;28;20023;-74
2024/01/12 07:25:29;;;;;;;51.67;18.43;;;-4.50;99.90;;;;;;5098522;28;20024;-74
2024/01/12 07:27:54;;;;;;;54.03;20.33;;;-4.50;99.90;;;;;;5099271;28;20019;-74
2024/01/12 07:30:20;;;;;;;53.90;20.47;;;-4.50;99.90;;;;;;5099133;28;20476;-74
2024/01/12 07:32:46;;;;;;;51.60;20.53;;;-4.50;99.90;;;;;;5098654;28;20401;-74
2024/01/12 07:35:12;;;;;;;43.77;18.03;;;-4.50;99.90;;;;;;5098922;28;20020;-73
2024/01/12 07:37:37;;;;;;;50.33;19.17;;;-4.50;99.90;;;;;;5098627;28;20396;-74
2024/01/12 07:40:04;;;;;;;43.47;19.00;;;-4.50;99.90;;;;;;5098636;28;20177;-74
2024/01/12 07:42:30;;;;;;;45.60;18.23;;;-4.50;99.90;;;;;;5116664;28;20026;-74
2024/01/12 07:44:56;;;;;;;48.63;18.83;;;-4.40;99.90;;;;;;5116969;28;20027;-74
2024/01/12 07:47:22;;;;;;;45.57;18.00;;;-4.50;99.90;;;;;;5098804;28;20131;-74
2024/01/12 07:49:47;;;;;;;47.73;18.37;;;-4.40;99.90;;;;;;5116467;28;20464;-74
2024/01/12 07:52:13;;;;;;;44.70;17.47;;;-4.40;99.90;;;;;;5098680;28;20027;-74
2024/01/12 07:54:38;;;;;;;48.90;20.20;;;-4.40;99.90;;;;;;5098197;28;20023;-74
2024/01/12 07:57:04;;;;;;;43.60;17.60;;;-4.40;99.90;;;;;;5098823;28;20135;-74
2024/01/12 07:59:29;;;;;;;44.30;17.83;;;-4.30;99.90;;;;;;5098020;28;20051;-74
2024/01/12 08:01:55;;;;;;;45.37;17.70;;;-4.30;99.90;;;;;;5098518;28;20012;-74
2024/01/12 08:04:21;;;;;;;43.33;17.00;;;-4.30;99.90;;;;;;5098525;28;20380;-74
2024/01/12 08:06:47;;;;;;;40.83;17.03;;;-4.30;99.90;;;;;;5097911;28;20020;-74
2024/01/12 08:09:13;;;;;;;46.33;17.60;;;-4.30;99.90;;;;;;5116719;28;20020;-74
2024/01/12 08:11:39;;;;;;;43.43;17.03;;;-4.20;99.90;;;;;;5116261;28;20019;-74
2024/01/12 08:14:05;;;;;;;47.10;16.83;;;-4.20;99.90;;;;;;5116531;28;20028;-74
2024/01/12 08:16:31;;;;;;;40.47;17.17;;;-4.20;99.90;;;;;;5097881;28;20111;-74
2024/01/12 08:18:57;;;;;;;40.93;16.90;;;-4.20;99.90;;;;;;5098154;28;20092;-74
2024/01/12 08:21:22;;;;;;;39.83;17.03;;;-4.10;99.90;;;;;;5116425;28;20452;-74
2024/01/12 08:23:48;;;;;;;44.13;16.53;;;-4.10;99.90;;;;;;5097590;28;20035;-74
2024/01/12 08:26:13;;;;;;;42.77;17.47;;;-4.00;99.90;;;;;;5097976;28;20352;-74
2024/01/12 08:28:39;;;;;;;41.53;17.67;;;-4.00;99.90;;;;;;5097552;28;20065;-74
2024/01/12 08:31:05;;;;;;;41.07;16.13;;;-4.00;99.90;;;;;;5116261;28;20019;-74
2024/01/12 08:33:30;;;;;;;44.17;16.67;;;-3.90;99.90;;;;;;5115801;28;20035;-76
2024/01/12 08:35:56;;;;;;;38.53;15.93;;;-3.90;99.90;;;;;;5097733;28;20073;-74
2024/01/12 08:38:22;;;;;;;43.13;18.10;;;-3.80;99.90;;;;;;5097776;28;20020;-74
2024/01/12 08:40:48;;;;;;;47.30;17.93;;;-3.80;99.90;;;;;;5097037;28;20039;-74
2024/01/12 08:43:14;;;;;;;46.10;15.87;;;-3.70;99.90;;;;;;5115928;28;20441;-74
2024/01/12 08:45:40;;;;;;;40.73;16.43;;;-3.70;99.90;;;;;;5115412;28;20039;-74
2024/01/12 08:48:06;;;;;;;39.90;15.47;;;-3.70;99.90;;;;;;5115534;28;20020;-74
2024/01/12 08:50:33;;;;;;;37.87;16.63;;;-3.60;99.90;;;;;;5115385;28;20095;-76
2024/01/12 08:52:59;;;;;;;41.20;16.67;;;-3.50;99.90;;;;;;5116047;28;20163;-74
2024/01/12 08:55:25;;;;;;;39.77;15.33;;;-3.50;99.90;;;;;;5097512;28;20027;-74
2024/01/12 08:57:52;;;;;;;39.83;16.40;;;-3.50;99.90;;;;;;5115054;28;20535;-75
2024/01/12 09:00:17;;;;;;;42.07;14.93;;;-3.50;99.90;;;;;;5097331;28;20413;-74
2024/01/12 09:02:43;;;;;;;40.70;14.63;;;-3.40;99.90;;;;;;5096863;28;20115;-74
2024/01/12 09:05:09;;;;;;;35.13;15.73;;;-3.40;99.90;;;;;;5115224;28;20038;-74
2024/01/12 09:07:34;;;;;;;36.10;13.87;;;-3.30;99.90;;;;;;5096793;28;20020;-75
2024/01/12 09:10:01;;;;;;;31.90;12.83;;;-3.20;99.90;;;;;;5097084;28;20023;-74
2024/01/12 09:12:26;;;;;;;34.97;14.67;;;-3.20;99.90;;;;;;5115505;28;20034;-74
2024/01/12 09:14:52;;;;;;;39.70;14.73;;;-3.10;99.90;;;;;;5114652;28;20031;-74
2024/01/12 09:17:18;;;;;;;30.30;12.70;;;-3.10;99.90;;;;;;5097192;28;20107;-74
2024/01/12 09:19:43;;;;;;;38.17;15.17;;;-3.10;99.90;;;;;;5114922;28;20471;-74
2024/01/12 09:22:10;;;;;;;31.97;13.47;;;-3.00;99.90;;;;;;5097223;28;20026;-74
2024/01/12 09:24:36;;;;;;;39.10;14.90;;;-3.00;99.90;;;;;;5096494;28;20038;-74
2024/01/12 09:27:01;;;;;;;33.00;12.97;;;-3.00;99.90;;;;;;5096915;28;20114;-74
2024/01/12 09:29:27;;;;;;;40.30;14.53;;;-2.90;99.90;;;;;;5096970;28;20367;-75
2024/01/12 09:31:52;;;;;;;31.53;14.77;;;-2.90;99.90;;;;;;5114987;28;20024;-74
2024/01/12 09:34:18;;;;;;;38.73;13.97;;;-2.80;99.90;;;;;;5115269;28;20035;-74
2024/01/12 09:36:43;;;;;;;30.60;13.73;;;-2.90;99.90;;;;;;5114228;28;20016;-73
2024/01/12 09:39:14;;;;;;;32.13;14.00;;;-2.80;99.90;;;;;;5114857;28;20034;-74
2024/01/12 09:41:47;;;;;;;30.20;11.63;;;-2.70;99.90;;;;;;5114534;28;20070;-74
2024/01/12 09:44:20;;;;;;;32.63;14.00;;;-2.70;99.90;;;;;;5096393;28;20035;-74
2024/01/12 09:46:57;;;;;;;33.67;13.13;;;-2.60;99.90;;;;;;5095596;28;20024;-74
2024/01/12 09:49:30;;;;;;;27.03;11.87;;;-2.60;99.90;;;;;;5096418;28;20020;-74
2024/01/12 09:51:57;;;;;;;33.30;14.27;;;-2.50;99.90;;;;;;5112754;28;20069;-75
2024/01/12 09:54:23;;;;;;;33.57;13.77;;;-2.50;99.90;;;;;;5114361;28;20073;-75
2024/01/12 09:56:48;;;;;;;31.10;12.90;;;-2.50;99.90;;;;;;5095895;28;20019;-74
2024/01/12 09:59:18;;;;;;;32.27;12.87;;;-2.40;99.90;;;;;;5114361;28;20406;-74
2024/01/12 10:01:44;;;;;;;29.43;12.50;;;-2.40;99.90;;;;;;5093087;28;20436;-74
2024/01/12 10:04:10;;;;;;;31.90;13.27;;;-2.40;99.90;;;;;;5095804;28;20052;-73
2024/01/12 10:06:36;;;;;;;33.77;12.87;;;-2.40;99.90;;;;;;5095417;28;20020;-81
2024/01/12 10:09:03;;;;;;;32.30;12.77;;;-2.40;99.90;;;;;;5113679;28;20471;-75
2024/01/12 10:11:29;;;;;;;30.33;12.93;;;-2.30;99.90;;;;;;5096068;28;20031;-74
2024/01/12 10:13:54;;;;;;;36.77;14.33;;;-2.30;99.90;;;;;;5113723;28;20028;-74
2024/01/12 10:16:28;;;;;;;31.80;12.67;;;-2.30;99.90;;;;;;5093012;28;20024;-75
2024/01/12 10:19:00;;;;;;;28.03;12.23;;;-2.20;99.90;;;;;;5113183;28;20016;-75
2024/01/12 10:21:26;;;;;;;30.35;12.25;;;-2.10;99.90;;;;;;5110992;28;20015;-74
2024/01/12 10:24:02;;;;;;;30.87;13.10;;;-2.00;99.90;;;;;;5112887;28;20097;-74
2024/01/12 10:26:28;;;;;;;35.43;12.93;;;-1.90;99.90;;;;;;5092720;28;20460;-75
2024/01/12 10:28:53;;;;;;;31.53;12.40;;;-1.90;99.90;;;;;;5112681;28;20081;-75
2024/01/12 10:31:19;;;;;;;27.70;11.93;;;-1.90;99.90;;;;;;5113406;28;20521;-75
2024/01/12 10:33:46;;;;;;;28.73;11.10;;;-1.80;99.90;;;;;;5092834;28;20099;-75
2024/01/12 10:36:22;;;;;;;26.83;11.80;;;-1.80;99.90;;;;;;5113616;28;20456;-75
2024/01/12 10:38:51;;;;;;;31.73;12.27;;;-1.70;99.90;;;;;;5093276;28;20103;-75
2024/01/12 10:41:21;;;;;;;26.50;11.37;;;-1.60;99.90;;;;;;5101934;28;20056;-74
2024/01/12 10:43:52;;;;;;;27.17;11.50;;;-1.70;99.90;;;;;;5092879;28;20056;-74
2024/01/12 10:46:39;;;;;;;30.07;11.23;;;-1.60;99.90;;;;;;5113213;28;20080;-74
2024/01/12 10:49:17;;;;;;;31.23;11.93;;;-1.50;99.90;;;;;;5094329;28;20256;-75
2024/01/12 10:52:02;;;;;;;28.03;11.97;;;-1.50;99.90;;;;;;5094161;28;20023;-74
2024/01/12 10:54:43;;;;;;;28.00;11.03;;;-1.40;99.90;;;;;;5110743;28;20019;-74
2024/01/12 10:57:10;;;;;;;27.53;11.60;;;-1.40;99.90;;;;;;5110295;28;20019;-74
2024/01/12 10:59:37;;;;;;;32.73;12.73;;;-1.40;99.90;;;;;;5093535;28;20111;-75
2024/01/12 11:02:03;;;;;;;27.50;12.03;;;-1.30;99.90;;;;;;5095327;27;20020;-75
2024/01/12 11:04:30;;;;;;;26.63;11.43;;;-1.30;99.90;;;;;;5100197;28;20477;-74
2024/01/12 11:07:00;;;;;;;27.37;12.10;;;-1.30;99.90;;;;;;5097060;28;20023;-74
2024/01/12 11:09:27;;;;;;;27.83;11.80;;;-1.20;99.90;;;;;;5099910;28;20023;-74
2024/01/12 11:12:08;;;;;;;27.90;11.53;;;-1.20;99.90;;;;;;5119457;27;20031;-74
2024/01/12 11:14:35;;;;;;;27.87;11.73;;;-1.10;99.90;;;;;;5120222;27;20034;-74
2024/01/12 11:17:01;;;;;;;26.43;11.33;;;-1.10;99.90;;;;;;5098008;28;20103;-74
2024/01/12 11:19:28;;;;;;;27.23;11.77;;;-1.00;99.90;;;;;;5121607;28;20015;-74
2024/01/12 11:22:09;;;;;;;26.90;10.93;;;-0.90;99.90;;;;;;5095298;28;20099;-75
2024/01/12 11:24:42;;;;;;;26.00;11.67;;;-0.90;99.90;;;;;;5121199;28;20031;-83
2024/01/12 11:27:12;;;;;;;25.97;10.53;;;-0.80;99.90;;;;;;5096900;28;20016;-76
2024/01/12 11:29:40;;;;;;;27.77;11.37;;;-0.80;99.90;;;;;;5100244;28;20019;-74
2024/01/12 11:32:06;;;;;;;25.00;11.03;;;-0.60;99.90;;;;;;5118122;28;20138;-74
2024/01/12 11:34:37;;;;;;;25.70;11.00;;;-0.40;99.90;;;;;;5100539;28;20080;-74
2024/01/12 11:37:03;;;;;;;25.93;10.93;;;-0.20;99.90;;;;;;5094151;28;20019;-74
2024/01/12 11:39:33;;;;;;;25.93;11.20;;;0.00;99.90;;;;;;5094341;28;20008;-74
2024/01/12 11:42:01;;;;;;;21.57;10.00;;;0.10;99.90;;;;;;5097876;28;20084;-74
2024/01/12 11:44:26;;;;;;;26.07;11.50;;;0.20;99.90;;;;;;5094009;28;20031;-74
2024/01/12 11:46:52;;;;;;;20.57;10.20;;;0.20;99.90;;;;;;5093701;28;20038;-75
2024/01/12 11:49:19;;;;;;;25.07;11.40;;;0.30;99.90;;;;;;5112473;28;20378;-74
2024/01/12 11:51:45;;;;;;;24.27;10.53;;;0.40;99.90;;;;;;5111377;28;20103;-75
2024/01/12 11:54:10;;;;;;;24.17;10.60;;;0.40;99.90;;;;;;5093585;28;20057;-74
2024/01/12 11:56:36;;;;;;;25.77;10.67;;;0.40;99.90;;;;;;5093895;28;20080;-75
2024/01/12 11:59:02;;;;;;;25.37;10.90;;;0.50;99.90;;;;;;5095769;28;20397;-74
2024/01/12 12:01:28;;;;;;;25.03;9.77;;;0.40;99.90;;;;;;5092837;28;20032;-78
2024/01/12 12:03:54;;;;;;;23.60;8.93;;;0.40;99.90;;;;;;5090110;28;20036;-75
2024/01/12 12:06:20;;;;;;;20.43;8.90;;;0.40;99.90;;;;;;5093098;28;20098;-75
2024/01/12 12:08:46;;;;;;;20.83;10.20;;;0.50;99.90;;;;;;5101134;28;20072;-74
2024/01/12 12:11:13;;;;;;;26.00;10.77;;;0.40;99.90;;;;;;5099712;28;20016;-75
2024/01/12 12:13:40;;;;;;;25.77;10.40;;;0.40;99.90;;;;;;5101602;28;20020;-75
2024/01/12 12:16:06;;;;;;;24.17;9.73;;;0.40;99.90;;;;;;5103126;28;20019;-76
2024/01/12 12:18:33;;;;;;;22.30;9.97;;;0.40;99.90;;;;;;5094888;28;20081;-75
2024/01/12 12:21:02;;;;;;;17.83;8.87;;;0.40;99.90;;;;;;5096941;28;20207;-76
2024/01/12 12:23:29;;;;;;;22.50;9.07;;;0.40;99.90;;;;;;5099912;27;20058;-76